createdAt,value
2023-03-29T00:00:49.865Z,7.80
2023-03-29T00:03:17.446Z,6.25
2023-03-29T00:05:44.799Z,5.75
2023-03-29T00:08:14.597Z,8.10
2023-03-29T00:10:42.380Z,7.45
2023-03-29T00:13:08.927Z,6.30
2023-03-29T00:18:03.213Z,9.65
2023-03-29T00:20:29.856Z,9.23
2023-03-29T00:22:56.420Z,6.65
2023-03-29T00:25:22.935Z,15.73
2023-03-29T00:27:49.567Z,6.80
2023-03-29T00:30:16.401Z,6.25
2023-03-29T00:32:43.064Z,7.60
2023-03-29T00:35:09.853Z,11.40
2023-03-29T00:37:36.916Z,9.35
2023-03-29T00:42:36.472Z,7.15
2023-03-29T00:45:18.910Z,7.68
2023-03-29T00:47:54.188Z,7.10
2023-03-29T00:50:29.537Z,5.25
2023-03-29T00:53:09.795Z,11.10
2023-03-29T00:55:58.195Z,7.93
2023-03-29T00:58:36.670Z,7.97
2023-03-29T01:01:10.907Z,6.38
2023-03-29T01:03:47.336Z,8.80
2023-03-29T01:06:17.853Z,7.68
2023-03-29T01:08:50.915Z,6.43
2023-03-29T01:11:24.710Z,6.47
2023-03-29T01:13:53.635Z,6.28
2023-03-29T01:16:22.052Z,7.63
2023-03-29T01:18:48.718Z,8.18
2023-03-29T01:21:32.625Z,6.45
2023-03-29T01:24:33.022Z,8.50
2023-03-29T01:27:12.603Z,6.35
2023-03-29T01:29:45.648Z,9.55
2023-03-29T01:32:18.134Z,10.48
2023-03-29T01:34:56.607Z,5.40
2023-03-29T01:37:36.385Z,9.02
2023-03-29T01:40:05.275Z,5.32
2023-03-29T01:42:58.648Z,7.22
2023-03-29T01:45:47.047Z,6.70
2023-03-29T01:48:29.360Z,5.53
2023-03-29T01:51:03.333Z,5.38
2023-03-29T01:53:43.118Z,4.00
2023-03-29T01:56:13.740Z,4.90
2023-03-29T01:58:45.139Z,7.72
2023-03-29T02:01:17.702Z,7.10
2023-03-29T02:03:49.889Z,4.95
2023-03-29T02:06:20.746Z,6.43
2023-03-29T02:08:48.077Z,4.53
2023-03-29T02:11:14.858Z,7.40
2023-03-29T02:13:41.576Z,5.93
2023-03-29T02:16:12.569Z,4.53
2023-03-29T02:18:42.750Z,5.28
2023-03-29T02:21:11.730Z,4.50
2023-03-29T02:23:45.314Z,4.22
2023-03-29T02:26:19.660Z,5.57
2023-03-29T02:28:46.169Z,6.90
2023-03-29T02:31:19.054Z,5.03
2023-03-29T02:33:53.920Z,5.82
2023-03-29T02:36:41.751Z,8.88
2023-03-29T02:39:10.506Z,3.47
2023-03-29T02:41:38.671Z,3.75
2023-03-29T02:44:10.911Z,4.13
2023-03-29T02:46:38.393Z,6.88
2023-03-29T02:49:05.295Z,4.82
2023-03-29T02:51:37.897Z,6.10
2023-03-29T02:54:20.776Z,6.28
2023-03-29T02:56:54.787Z,5.32
2023-03-29T02:59:22.627Z,4.95
2023-03-29T03:01:50.137Z,5.32
2023-03-29T03:04:22.801Z,6.72
2023-03-29T03:06:49.579Z,7.45
2023-03-29T03:09:16.324Z,6.68
2023-03-29T03:11:42.868Z,9.73
2023-03-29T03:14:09.498Z,8.65
2023-03-29T03:16:37.050Z,7.15
2023-03-29T03:19:06.989Z,4.93
2023-03-29T03:21:35.218Z,4.20
2023-03-29T03:24:02.017Z,7.93
2023-03-29T03:26:31.348Z,4.72
2023-03-29T03:28:58.309Z,4.60
2023-03-29T03:31:25.231Z,7.07
2023-03-29T03:36:26.070Z,6.15
2023-03-29T03:38:53.314Z,7.88
2023-03-29T03:41:19.860Z,4.82
2023-03-29T03:43:48.941Z,9.15
2023-03-29T03:46:17.115Z,5.35
2023-03-29T03:48:44.519Z,6.03
2023-03-29T03:51:11.105Z,6.07
2023-03-29T03:53:38.019Z,4.90
2023-03-29T03:58:38.541Z,6.35
2023-03-29T04:01:06.066Z,7.10
2023-03-29T04:03:32.631Z,7.53
2023-03-29T04:06:03.428Z,6.88
2023-03-29T04:08:30.349Z,7.22
2023-03-29T04:11:08.043Z,5.68
2023-03-29T04:13:34.500Z,7.55
2023-03-29T04:16:01.920Z,5.70
2023-03-29T04:18:28.686Z,5.77
2023-03-29T04:20:55.232Z,8.60
2023-03-29T04:23:24.745Z,4.60
2023-03-29T04:25:55.042Z,9.57
2023-03-29T04:28:24.374Z,6.75
2023-03-29T04:30:50.852Z,6.22
2023-03-29T04:33:17.484Z,6.13
2023-03-29T04:35:44.413Z,5.57
2023-03-29T04:38:11.425Z,7.20
2023-03-29T04:43:05.084Z,7.93
2023-03-29T04:45:31.503Z,9.93
2023-03-29T04:48:02.450Z,7.97
2023-03-29T04:50:28.917Z,6.80
2023-03-29T04:52:55.674Z,6.57
2023-03-29T04:55:22.234Z,6.60
2023-03-29T04:57:48.790Z,6.82
2023-03-29T05:00:15.644Z,8.43
2023-03-29T05:05:13.444Z,8.02
2023-03-29T05:07:42.967Z,7.75
2023-03-29T05:10:09.722Z,7.22
2023-03-29T05:12:36.830Z,6.75
2023-03-29T05:15:04.948Z,6.93
2023-03-29T05:17:36.146Z,11.52
2023-03-29T05:20:09.249Z,9.50
2023-03-29T05:22:36.469Z,10.50
2023-03-29T05:25:09.237Z,7.47
2023-03-29T05:27:35.743Z,6.00
2023-03-29T05:30:02.351Z,10.73
2023-03-29T05:32:29.046Z,9.32
2023-03-29T05:34:55.548Z,8.52
2023-03-29T05:37:22.025Z,8.13
2023-03-29T05:39:49.642Z,10.07
2023-03-29T05:42:16.131Z,12.13
2023-03-29T05:44:42.612Z,7.68
2023-03-29T05:47:09.139Z,7.90
2023-03-29T05:49:35.599Z,7.38
2023-03-29T05:52:02.487Z,7.68
2023-03-29T05:54:28.916Z,7.03
2023-03-29T05:56:55.439Z,8.48
2023-03-29T05:59:23.605Z,8.55
2023-03-29T06:01:50.237Z,8.77
2023-03-29T06:04:20.544Z,9.43
2023-03-29T06:06:48.573Z,7.18
2023-03-29T06:09:15.576Z,9.00
2023-03-29T06:14:08.307Z,10.73
2023-03-29T06:16:35.073Z,8.45
2023-03-29T06:19:01.647Z,8.05
2023-03-29T06:21:28.548Z,8.30
2023-03-29T06:23:55.010Z,7.70
2023-03-29T06:26:21.630Z,7.97
2023-03-29T06:28:51.426Z,6.88
2023-03-29T06:31:19.850Z,8.68
2023-03-29T06:33:46.816Z,7.78
2023-03-29T06:36:16.150Z,8.57
2023-03-29T06:38:44.276Z,8.63
2023-03-29T06:41:13.514Z,8.82
2023-03-29T06:43:40.053Z,9.45
2023-03-29T06:46:11.811Z,9.02
2023-03-29T06:48:39.206Z,10.15
2023-03-29T06:53:32.673Z,9.40
2023-03-29T06:55:59.703Z,6.57
2023-03-29T07:00:53.843Z,9.60
2023-03-29T07:03:23.195Z,8.43
2023-03-29T07:05:51.986Z,7.85
2023-03-29T07:08:20.791Z,9.02
2023-03-29T07:10:52.759Z,5.13
2023-03-29T07:13:19.317Z,11.90
2023-03-29T07:15:48.204Z,7.55
2023-03-29T07:18:14.691Z,8.40
2023-03-29T07:20:42.547Z,7.75
2023-03-29T07:23:10.442Z,6.72
2023-03-29T07:25:38.324Z,8.10
2023-03-29T07:28:06.240Z,8.65
2023-03-29T07:30:32.951Z,5.05
2023-03-29T07:32:59.704Z,9.65
2023-03-29T07:35:27.617Z,7.10
2023-03-29T07:37:55.862Z,5.82
2023-03-29T07:40:26.287Z,7.60
2023-03-29T07:42:55.152Z,5.38
2023-03-29T07:45:26.087Z,13.07
2023-03-29T07:47:58.689Z,5.88
2023-03-29T07:50:26.120Z,9.38
2023-03-29T07:52:52.712Z,7.45
2023-03-29T07:55:22.316Z,8.77
2023-03-29T07:57:49.461Z,9.95
2023-03-29T08:00:17.220Z,6.05
2023-03-29T08:02:45.623Z,7.25
2023-03-29T08:05:14.064Z,6.35
2023-03-29T08:07:42.478Z,7.03
2023-03-29T08:10:11.009Z,8.30
2023-03-29T08:12:37.861Z,10.05
2023-03-29T08:15:05.500Z,7.13
2023-03-29T08:17:40.282Z,7.15
2023-03-29T08:20:12.453Z,6.75
2023-03-29T08:22:39.530Z,7.25
2023-03-29T08:27:47.077Z,11.48
2023-03-29T08:30:14.941Z,7.45
2023-03-29T08:32:41.677Z,8.80
2023-03-29T08:35:09.716Z,6.20
2023-03-29T08:37:37.286Z,7.60
2023-03-29T08:40:05.582Z,12.45
2023-03-29T08:42:49.188Z,9.48
2023-03-29T08:45:29.338Z,10.07
2023-03-29T08:48:04.485Z,6.78
2023-03-29T08:50:36.651Z,8.20
2023-03-29T08:53:15.504Z,5.65
2023-03-29T08:55:45.297Z,7.72
2023-03-29T08:58:17.084Z,7.25
2023-03-29T09:00:49.501Z,8.48
2023-03-29T09:03:40.956Z,7.55
2023-03-29T09:06:10.981Z,7.55
2023-03-29T09:08:41.092Z,8.00
2023-03-29T09:11:30.840Z,6.50
2023-03-29T09:14:12.224Z,6.50
2023-03-29T09:16:50.893Z,8.32
2023-03-29T09:19:42.315Z,9.70
2023-03-29T09:22:17.909Z,7.40
2023-03-29T09:25:03.285Z,6.20
2023-03-29T09:27:48.263Z,9.98
2023-03-29T09:30:30.716Z,6.63
2023-03-29T09:33:28.790Z,8.93
2023-03-29T09:36:16.344Z,9.02
2023-03-29T09:38:47.869Z,9.32
2023-03-29T09:41:29.552Z,8.95
2023-03-29T09:43:59.369Z,5.60
2023-03-29T09:46:34.344Z,9.20
2023-03-29T09:49:04.856Z,6.60
2023-03-29T09:51:34.370Z,8.38
2023-03-29T09:54:01.114Z,5.00
2023-03-29T09:56:29.073Z,7.63
2023-03-29T09:58:55.806Z,7.03
2023-03-29T10:01:22.299Z,7.40
2023-03-29T10:03:51.619Z,6.10
2023-03-29T10:06:21.435Z,6.57
2023-03-29T10:08:52.747Z,5.80
2023-03-29T10:11:28.869Z,7.45
2023-03-29T10:14:00.958Z,7.93
2023-03-29T10:16:39.130Z,7.70
2023-03-29T10:19:28.366Z,7.50
2023-03-29T10:21:55.482Z,5.95
2023-03-29T10:26:56.204Z,6.93
2023-03-29T10:29:27.883Z,5.85
2023-03-29T10:31:54.931Z,5.72
2023-03-29T10:37:01.183Z,8.32
2023-03-29T10:39:32.841Z,7.15
2023-03-29T10:42:01.262Z,6.07
2023-03-29T10:44:32.935Z,5.38
2023-03-29T10:47:20.349Z,7.50
2023-03-29T10:49:58.879Z,6.38
2023-03-29T10:52:25.825Z,5.28
2023-03-29T10:54:55.064Z,6.43
2023-03-29T10:57:37.455Z,5.80
2023-03-29T11:00:20.441Z,5.78
2023-03-29T11:03:06.085Z,6.65
2023-03-29T11:05:42.128Z,6.93
2023-03-29T11:08:31.870Z,7.22
2023-03-29T11:11:10.513Z,7.95
2023-03-29T11:14:01.577Z,6.38
2023-03-29T11:16:31.045Z,6.25
2023-03-29T11:19:23.286Z,5.68
2023-03-29T11:21:59.211Z,7.20
2023-03-29T11:24:27.728Z,5.47
2023-03-29T11:27:35.620Z,6.05
2023-03-29T11:30:08.151Z,6.25
2023-03-29T11:32:56.564Z,7.43
2023-03-29T11:35:36.378Z,6.90
2023-03-29T11:38:14.554Z,6.68
2023-03-29T11:41:09.365Z,8.60
2023-03-29T11:43:55.196Z,7.80
2023-03-29T11:46:40.195Z,7.85
2023-03-29T11:49:25.177Z,9.48
2023-03-29T11:52:07.012Z,9.55
2023-03-29T11:54:36.635Z,8.90
2023-03-29T11:57:18.565Z,7.63
2023-03-29T11:59:54.630Z,7.45
2023-03-29T12:02:33.771Z,9.00
2023-03-29T12:05:11.097Z,9.65
2023-03-29T12:08:05.135Z,9.70
2023-03-29T12:10:37.032Z,8.95
2023-03-29T12:13:08.169Z,9.27
2023-03-29T12:15:50.578Z,8.82
2023-03-29T12:18:29.216Z,9.82
2023-03-29T12:21:06.748Z,8.43
2023-03-29T12:23:34.083Z,8.65
2023-03-29T12:26:27.861Z,12.00
2023-03-29T12:29:16.311Z,9.75
2023-03-29T12:32:03.840Z,10.70
2023-03-29T12:35:12.037Z,10.57
2023-03-29T12:38:14.172Z,10.63
2023-03-29T12:40:56.531Z,10.10
2023-03-29T12:43:33.028Z,10.38
2023-03-29T12:46:08.742Z,11.52
2023-03-29T12:48:38.618Z,11.30
2023-03-29T12:51:10.723Z,11.75
2023-03-29T12:53:42.722Z,10.60
2023-03-29T12:56:12.519Z,8.88
2023-03-29T12:58:39.302Z,10.05
2023-03-29T13:01:07.758Z,12.15
2023-03-29T13:03:48.507Z,13.02
2023-03-29T13:06:30.327Z,10.70
2023-03-29T13:09:20.973Z,11.10
2023-03-29T13:11:57.159Z,10.95
2023-03-29T13:14:29.998Z,11.45
2023-03-29T13:17:17.917Z,11.13
2023-03-29T13:20:12.560Z,11.07
2023-03-29T13:22:51.726Z,8.43
2023-03-29T13:25:35.660Z,9.85
2023-03-29T13:28:11.469Z,11.10
2023-03-29T13:30:58.280Z,10.47
2023-03-29T13:33:48.861Z,10.82
2023-03-29T13:36:27.212Z,13.00
2023-03-29T13:38:55.555Z,12.27
2023-03-29T13:41:40.874Z,11.82
2023-03-29T13:44:22.339Z,10.45
2023-03-29T13:46:50.714Z,11.93
2023-03-29T13:49:31.058Z,12.13
2023-03-29T13:52:07.184Z,11.90
2023-03-29T13:54:42.860Z,12.68
2023-03-29T13:57:23.600Z,12.02
2023-03-29T14:00:28.648Z,12.63
2023-03-29T14:02:58.063Z,11.57
2023-03-29T14:05:32.325Z,10.88
2023-03-29T14:08:08.754Z,12.27
2023-03-29T14:10:40.756Z,13.25
2023-03-29T14:13:12.645Z,14.20
2023-03-29T14:15:50.574Z,15.32
2023-03-29T14:18:21.432Z,12.63
2023-03-29T14:20:50.831Z,12.68
2023-03-29T14:23:21.904Z,12.85
2023-03-29T14:25:48.402Z,15.55
2023-03-29T14:28:23.587Z,22.55
2023-03-29T14:30:52.600Z,16.65
2023-03-29T14:33:31.181Z,14.02
2023-03-29T14:36:00.433Z,15.93
2023-03-29T14:38:27.716Z,12.82
2023-03-29T14:40:59.501Z,12.98
2023-03-29T14:43:30.356Z,15.23
2023-03-29T14:45:58.540Z,12.95
2023-03-29T14:48:25.916Z,11.98
2023-03-29T14:50:52.794Z,14.35
2023-03-29T14:53:22.085Z,15.45
2023-03-29T14:55:52.261Z,11.95
2023-03-29T14:58:24.721Z,10.88
2023-03-29T15:00:52.959Z,11.63
2023-03-29T15:03:26.123Z,11.68
2023-03-29T15:06:02.983Z,10.95
2023-03-29T15:08:33.044Z,11.95
2023-03-29T15:10:59.960Z,12.10
2023-03-29T15:13:27.584Z,11.57
2023-03-29T15:18:34.440Z,10.32
2023-03-29T15:21:01.923Z,16.38
2023-03-29T15:23:37.160Z,12.20
2023-03-29T15:26:15.419Z,11.32
2023-03-29T15:28:48.845Z,11.48
2023-03-29T15:31:18.590Z,13.68
2023-03-29T15:33:45.858Z,12.23
2023-03-29T15:36:14.130Z,11.52
2023-03-29T15:38:44.954Z,14.80
2023-03-29T15:41:14.645Z,63.78
2023-03-29T15:43:41.691Z,95.45
2023-03-29T15:46:08.695Z,109.25
2023-03-29T15:48:35.453Z,76.03
2023-03-29T15:51:04.822Z,50.88
2023-03-29T15:53:33.387Z,22.52
2023-03-29T15:56:02.547Z,15.40
2023-03-29T15:58:31.701Z,12.63
2023-03-29T16:01:00.720Z,11.30
2023-03-29T16:03:27.421Z,10.77
2023-03-29T16:05:56.712Z,10.73
2023-03-29T16:08:25.049Z,10.15
2023-03-29T16:10:51.777Z,11.77
2023-03-29T16:13:18.538Z,11.93
2023-03-29T16:15:45.938Z,9.63
2023-03-29T16:18:12.527Z,9.75
2023-03-29T16:20:39.226Z,10.50
2023-03-29T16:23:11.465Z,13.43
2023-03-29T16:25:40.011Z,11.77
2023-03-29T16:28:08.678Z,14.30
2023-03-29T16:30:36.921Z,11.35
2023-03-29T16:33:06.337Z,10.98
2023-03-29T16:35:37.942Z,10.68
2023-03-29T16:38:05.013Z,11.45
2023-03-29T16:40:31.824Z,11.65
2023-03-29T16:42:58.424Z,12.48
2023-03-29T16:45:25.087Z,12.43
2023-03-29T16:47:51.882Z,11.07
2023-03-29T16:52:48.381Z,10.07
2023-03-29T16:55:19.254Z,11.50
2023-03-29T16:57:47.715Z,11.88
2023-03-29T17:00:17.392Z,15.63
2023-03-29T17:02:44.680Z,11.75
2023-03-29T17:05:12.508Z,12.10
2023-03-29T17:07:39.568Z,11.57
2023-03-29T17:12:36.715Z,12.25
2023-03-29T17:15:05.165Z,12.80
2023-03-29T17:17:31.914Z,14.55
2023-03-29T17:19:58.390Z,14.85
2023-03-29T17:22:25.302Z,13.18
2023-03-29T17:24:52.081Z,13.30
2023-03-29T17:27:18.596Z,13.63
2023-03-29T17:29:45.262Z,14.35
2023-03-29T17:32:11.891Z,11.90
2023-03-29T17:34:38.932Z,13.45
2023-03-29T17:39:32.135Z,12.95
2023-03-29T17:41:58.762Z,12.68
2023-03-29T17:44:25.346Z,18.70
2023-03-29T17:46:51.924Z,21.65
2023-03-29T17:49:18.389Z,36.58
2023-03-29T17:51:44.951Z,32.70
2023-03-29T17:54:12.225Z,22.95
2023-03-29T17:56:38.699Z,15.88
2023-03-29T17:59:05.279Z,12.45
2023-03-29T18:01:31.891Z,11.00
2023-03-29T18:03:58.501Z,15.38
2023-03-29T18:06:25.095Z,15.43
2023-03-29T18:08:53.211Z,13.88
2023-03-29T18:11:22.970Z,15.73
2023-03-29T18:13:51.368Z,15.68
2023-03-29T18:16:18.694Z,14.23
2023-03-29T18:18:46.450Z,14.10
2023-03-29T18:21:14.634Z,14.68
2023-03-29T18:23:44.978Z,17.10
2023-03-29T18:26:12.235Z,15.57
2023-03-29T18:28:38.772Z,16.52
2023-03-29T18:31:05.941Z,13.15
2023-03-29T18:33:35.368Z,15.23
2023-03-29T18:36:05.089Z,15.43
2023-03-29T18:38:35.211Z,15.35
2023-03-29T18:41:05.242Z,13.82
2023-03-29T18:43:33.900Z,14.27
2023-03-29T18:46:00.495Z,13.60
2023-03-29T18:48:27.649Z,14.02
2023-03-29T18:50:58.153Z,12.63
2023-03-29T18:53:24.964Z,13.45
2023-03-29T18:55:51.476Z,10.70
2023-03-29T18:58:19.138Z,13.77
2023-03-29T19:00:45.946Z,11.45
2023-03-29T19:03:12.526Z,16.00
2023-03-29T19:05:39.822Z,15.40
2023-03-29T19:08:09.146Z,14.57
2023-03-29T19:10:36.781Z,13.57
2023-03-29T19:13:04.216Z,13.68
2023-03-29T19:15:32.342Z,13.40
2023-03-29T19:17:59.016Z,13.75
2023-03-29T19:20:25.599Z,12.43
2023-03-29T19:22:53.495Z,13.57
2023-03-29T19:25:20.347Z,12.85
2023-03-29T19:27:46.835Z,18.15
2023-03-29T19:30:14.385Z,11.23
2023-03-29T19:32:41.047Z,11.07
2023-03-29T19:35:09.610Z,11.05
2023-03-29T19:37:36.468Z,12.15
2023-03-29T19:40:06.409Z,10.38
2023-03-29T19:42:36.291Z,12.95
2023-03-29T19:45:03.949Z,8.40
2023-03-29T19:47:31.120Z,10.80
2023-03-29T19:49:59.066Z,9.70
2023-03-29T19:52:27.863Z,9.30
2023-03-29T19:54:55.892Z,14.55
2023-03-29T19:57:23.911Z,12.52
2023-03-29T19:59:50.932Z,12.05
2023-03-29T20:07:10.568Z,14.15
2023-03-29T20:09:37.715Z,9.85
2023-03-29T20:12:04.977Z,11.65
2023-03-29T20:14:31.643Z,11.65
2023-03-29T20:16:58.642Z,10.73
2023-03-29T20:21:57.449Z,14.05
2023-03-29T20:24:25.295Z,11.85
2023-03-29T20:26:52.244Z,12.07
2023-03-29T20:29:18.929Z,9.57
2023-03-29T20:31:46.206Z,7.68
2023-03-29T20:34:13.167Z,11.90
2023-03-29T20:36:40.500Z,10.15
2023-03-29T20:39:08.235Z,10.68
2023-03-29T20:41:38.295Z,10.98
2023-03-29T20:44:05.767Z,10.10
2023-03-29T20:46:35.910Z,10.40
2023-03-29T20:49:04.661Z,11.25
2023-03-29T20:51:32.202Z,12.27
2023-03-29T20:54:04.761Z,10.48
2023-03-29T20:56:33.713Z,13.00
2023-03-29T20:59:00.547Z,10.23
2023-03-29T21:01:29.687Z,10.00
2023-03-29T21:03:56.571Z,9.73
2023-03-29T21:06:24.727Z,12.65
2023-03-29T21:08:52.554Z,11.20
2023-03-29T21:11:20.414Z,11.52
2023-03-29T21:13:47.545Z,9.38
2023-03-29T21:16:14.470Z,14.88
2023-03-29T21:18:41.812Z,11.13
2023-03-29T21:21:09.745Z,10.85
2023-03-29T21:23:37.335Z,10.02
2023-03-29T21:26:06.862Z,10.02
2023-03-29T21:28:34.020Z,10.85
2023-03-29T21:31:05.447Z,9.48
2023-03-29T21:33:33.065Z,10.43
2023-03-29T21:36:00.643Z,11.02
2023-03-29T21:38:28.180Z,10.07
2023-03-29T21:40:54.707Z,10.73
2023-03-29T21:43:21.500Z,11.98
2023-03-29T21:45:49.666Z,12.18
2023-03-29T21:48:17.823Z,10.88
2023-03-29T21:50:44.899Z,11.75
2023-03-29T21:55:38.403Z,10.48
2023-03-29T21:58:05.465Z,13.43
2023-03-29T22:02:59.393Z,12.52
2023-03-29T22:05:26.268Z,11.50
2023-03-29T22:07:53.020Z,11.15
2023-03-29T22:10:22.977Z,11.35
2023-03-29T22:12:50.989Z,9.73
2023-03-29T22:15:20.732Z,9.68
2023-03-29T22:17:47.935Z,11.38
2023-03-29T22:20:15.126Z,10.18
2023-03-29T22:22:52.663Z,10.70
2023-03-29T22:25:19.738Z,10.07
2023-03-29T22:30:15.471Z,10.80
2023-03-29T22:32:42.535Z,10.00
2023-03-29T22:37:44.007Z,9.52
2023-03-29T22:40:12.091Z,8.77
2023-03-29T22:42:38.900Z,10.80
2023-03-29T22:45:06.545Z,11.18
2023-03-29T22:47:33.172Z,10.93
2023-03-29T22:49:59.633Z,12.05
2023-03-29T22:52:26.200Z,12.20
2023-03-29T22:54:52.703Z,8.88
2023-03-29T22:57:19.225Z,10.15
2023-03-29T22:59:45.757Z,12.50
2023-03-29T23:02:12.233Z,9.43
2023-03-29T23:04:38.819Z,9.50
2023-03-29T23:07:06.481Z,10.00
2023-03-29T23:09:33.239Z,10.90
2023-03-29T23:12:01.435Z,9.60
2023-03-29T23:14:27.939Z,10.48
2023-03-29T23:16:54.453Z,11.07
2023-03-29T23:19:20.980Z,7.13
2023-03-29T23:21:47.444Z,9.15
2023-03-29T23:24:18.740Z,7.80
2023-03-29T23:26:45.581Z,10.70
2023-03-29T23:29:12.205Z,7.93
2023-03-29T23:31:38.800Z,7.35
2023-03-29T23:34:05.450Z,8.98
2023-03-29T23:36:32.021Z,9.35
2023-03-29T23:38:59.593Z,9.88
2023-03-29T23:41:28.296Z,11.52
2023-03-29T23:43:57.568Z,11.32
2023-03-29T23:46:24.657Z,9.20
2023-03-29T23:48:52.324Z,9.85
2023-03-29T23:51:22.920Z,9.20
2023-03-29T23:53:50.010Z,7.97
2023-03-29T23:56:16.525Z,8.98
2023-03-29T23:58:43.018Z,9.82
